Hauptseite
METAR-TAF:

METAR-TAF

Flughäfen :

Flughafen Verona

Verona, Italien

Breite: 45-23N, Länge: 010-52E, Höhe: 67 m

Beobachtung

Neuester Wetterbericht von vor 33 Minuten, um 03:20 UTC
Wind 1 kt aus unterschiedlichen Richtungen
Temperatur 17°C
Luftfeuchtigkeit 94%
Luftdruck 1019 hPa
Sichtweite 10 km oder mehr
keine Wolken unter 1500 m und keine Kumulonimbus oder Gewitterwolken

METAR: LIPX 190320Z VRB01KT CAVOK 17/16 Q1019

Zeit: 05:53 (03:53 UTC)

Prognose

Neuester Wetterbericht von vor 1 Stunde und 53 Minuten, um 02:00 UTC
Gültige Prognose vom 19 um 03 UTC bis 19 um 12 UTC
Wind 5 kt aus unterschiedlichen Richtungen
Sichtweite 10 km oder mehr
keine Wolken unter 1500 m und keine Kumulonimbus oder Gewitterwolken
Zeitweise
vom 19 um 03 UTC bis 19 um 08 UTC
Sichtweite: 4000 m
feuchter Dunst

TAF: LIPX 190200Z 1903/1912 VRB05KT CAVOK TEMPO 1903/1908 4000 BR

Wetterbeobachtungen und Prognosen von mehr als 4000 Flughäfen (METAR und TAF Bericht).

Die verfügbaren Stationen werden durch gelbe und rote Markierungen auf der Karte dargestellt.

Führen Sie die Maus auf sie, um den Namen der Station zu sehen.

Darauf klicken, um die Beobachtung von Wetterbeobachtungen und Prognosen zu sehen.

Um die Karte zu ändern : klicken Sie auf den grünen Tasten mit einem schwarzen Kreuz Zum Vergrößern, auf den grünen Button mit einem Gedankenstrich zu verkleinern, oder auf die grünen Pfeile für benachbarte Karten.


METAR-TAF: